createdAt,value
2023-04-25T00:00:56.442Z,96999.03
2023-04-25T00:03:26.129Z,96987.72
2023-04-25T00:05:54.077Z,96990.03
2023-04-25T00:08:21.603Z,96981.00
2023-04-25T00:10:49.826Z,96976.22
2023-04-25T00:13:18.359Z,96982.59
2023-04-25T00:15:49.056Z,96975.66
2023-04-25T00:18:16.588Z,96974.31
2023-04-25T00:20:47.345Z,96968.59
2023-04-25T00:23:20.923Z,96982.38
2023-04-25T00:25:50.792Z,96990.72
2023-04-25T00:28:18.341Z,96996.81
2023-04-25T00:30:45.888Z,96996.47
2023-04-25T00:33:13.480Z,96994.25
2023-04-25T00:35:41.158Z,96993.72
2023-04-25T00:38:08.747Z,96988.63
2023-04-25T00:40:36.413Z,96992.56
2023-04-25T00:43:03.958Z,96987.69
2023-04-25T00:45:31.652Z,96985.25
2023-04-25T00:47:59.295Z,96993.25
2023-04-25T00:50:26.829Z,96987.91
2023-04-25T00:52:55.150Z,96979.50
2023-04-25T00:55:23.227Z,96974.00
2023-04-25T00:57:51.193Z,96970.13
2023-04-25T01:00:19.734Z,96967.00
2023-04-25T01:02:48.124Z,96957.06
2023-04-25T01:05:15.679Z,96962.59
2023-04-25T01:07:43.788Z,96964.06
2023-04-25T01:10:11.476Z,96971.06
2023-04-25T01:12:39.299Z,96966.28
2023-04-25T01:15:07.446Z,96965.00
2023-04-25T01:17:35.919Z,96963.16
2023-04-25T01:20:08.439Z,96960.66
2023-04-25T01:22:36.085Z,96963.53
2023-04-25T01:25:04.335Z,96959.03
2023-04-25T01:27:32.972Z,96961.06
2023-04-25T01:30:01.124Z,96956.72
2023-04-25T01:32:29.136Z,96955.09
2023-04-25T01:34:56.902Z,96959.78
2023-04-25T01:37:24.444Z,96958.13
2023-04-25T01:39:52.175Z,96964.28
2023-04-25T01:42:20.777Z,96962.44
2023-04-25T01:44:48.823Z,96965.56
2023-04-25T01:47:16.318Z,96966.56
2023-04-25T01:49:44.532Z,96960.22
2023-04-25T01:52:12.006Z,96958.00
2023-04-25T01:54:44.907Z,96955.97
2023-04-25T01:57:13.519Z,96957.00
2023-04-25T01:59:44.757Z,96962.69
2023-04-25T02:02:38.445Z,96958.84
2023-04-25T02:05:09.086Z,96947.91
2023-04-25T02:07:39.996Z,96949.75
2023-04-25T02:10:08.774Z,96946.97
2023-04-25T02:12:42.179Z,96956.00
2023-04-25T02:15:24.251Z,96948.06
2023-04-25T02:17:56.250Z,96954.44
2023-04-25T02:20:25.696Z,96953.41
2023-04-25T02:22:53.769Z,96952.03
2023-04-25T02:25:22.709Z,96955.53
2023-04-25T02:27:51.370Z,96941.16
2023-04-25T02:30:18.873Z,96940.16
2023-04-25T02:32:47.177Z,96948.81
2023-04-25T02:35:14.852Z,96946.13
2023-04-25T02:37:43.153Z,96939.78
2023-04-25T02:40:11.033Z,96937.97
2023-04-25T02:42:38.617Z,96940.44
2023-04-25T02:45:06.706Z,96939.63
2023-04-25T02:47:34.257Z,96939.63
2023-04-25T02:50:01.834Z,96927.19
2023-04-25T02:52:29.975Z,96932.53
2023-04-25T02:55:06.335Z,96929.78
2023-04-25T02:57:35.390Z,96925.47
2023-04-25T03:00:05.622Z,96924.16
2023-04-25T03:02:33.179Z,96921.03
2023-04-25T03:05:00.789Z,96924.47
2023-04-25T03:07:29.527Z,96923.34
2023-04-25T03:09:57.701Z,96919.88
2023-04-25T03:12:25.354Z,96919.03
2023-04-25T03:14:53.072Z,96926.03
2023-04-25T03:17:20.564Z,96917.63
2023-04-25T03:19:48.221Z,96918.31
2023-04-25T03:22:15.951Z,96929.03
2023-04-25T03:24:43.524Z,96927.19
2023-04-25T03:27:11.096Z,96927.00
2023-04-25T03:29:38.628Z,96930.50
2023-04-25T03:32:07.086Z,96924.34
2023-04-25T03:34:34.656Z,96926.00
2023-04-25T03:37:02.247Z,96921.50
2023-04-25T03:39:32.422Z,96915.53
2023-04-25T03:41:59.965Z,96923.34
2023-04-25T03:44:29.949Z,96922.72
2023-04-25T03:46:57.571Z,96917.47
2023-04-25T03:49:26.144Z,96913.97
2023-04-25T03:52:03.621Z,96916.00
2023-04-25T03:54:36.930Z,96918.38
2023-04-25T03:57:08.129Z,96918.84
2023-04-25T03:59:39.130Z,96920.88
2023-04-25T04:02:08.371Z,96921.06
2023-04-25T04:04:38.435Z,96926.50
2023-04-25T04:07:06.129Z,96923.19
2023-04-25T04:09:37.170Z,96931.38
2023-04-25T04:12:09.358Z,96924.28
2023-04-25T04:14:39.193Z,96930.38
2023-04-25T04:17:06.989Z,96931.47
2023-04-25T04:19:34.521Z,96931.94
2023-04-25T04:22:10.903Z,96928.50
2023-04-25T04:24:40.207Z,96926.22
2023-04-25T04:27:09.202Z,96930.59
2023-04-25T04:29:49.917Z,96924.91
2023-04-25T04:32:26.498Z,96937.03
2023-04-25T04:34:55.871Z,96934.38
2023-04-25T04:37:24.961Z,96937.78
2023-04-25T04:39:53.187Z,96940.28
2023-04-25T04:42:39.407Z,96939.72
2023-04-25T04:45:19.095Z,96939.72
2023-04-25T04:47:51.284Z,96940.56
2023-04-25T04:50:37.806Z,96943.13
2023-04-25T04:53:23.044Z,96951.59
2023-04-25T04:56:03.294Z,96956.28
2023-04-25T04:58:51.361Z,96955.53
2023-04-25T05:01:38.251Z,96957.16
2023-04-25T05:04:17.343Z,96955.34
2023-04-25T05:06:47.508Z,96955.06
2023-04-25T05:09:34.921Z,96953.97
2023-04-25T05:12:17.861Z,96952.88
2023-04-25T05:15:20.837Z,96950.38
2023-04-25T05:18:07.260Z,96957.38
2023-04-25T05:20:48.361Z,96956.16
2023-04-25T05:23:48.037Z,96961.97
2023-04-25T05:26:44.451Z,96953.25
2023-04-25T05:29:36.185Z,96954.81
2023-04-25T05:32:23.319Z,96959.28
2023-04-25T05:34:52.432Z,96958.03
2023-04-25T05:37:31.438Z,96958.19
2023-04-25T05:40:08.638Z,96957.91
2023-04-25T05:42:49.048Z,96959.94
2023-04-25T05:45:22.182Z,96960.31
2023-04-25T05:48:13.248Z,96965.00
2023-04-25T05:50:59.424Z,96960.50
2023-04-25T05:53:47.285Z,96955.63
2023-04-25T05:56:16.078Z,96956.06
2023-04-25T05:58:44.134Z,96965.16
2023-04-25T06:01:13.592Z,96963.34
2023-04-25T06:03:44.155Z,96960.47
2023-04-25T06:06:13.028Z,96970.53
2023-04-25T06:08:41.768Z,96968.38
2023-04-25T06:11:12.759Z,96973.25
2023-04-25T06:13:40.391Z,96967.78
2023-04-25T06:16:08.517Z,96967.22
2023-04-25T06:18:36.146Z,96961.03
2023-04-25T06:21:03.753Z,96970.13
2023-04-25T06:23:31.798Z,96956.88
2023-04-25T06:26:08.215Z,96969.47
2023-04-25T06:28:38.695Z,96972.03
2023-04-25T06:31:06.335Z,96966.09
2023-04-25T06:33:33.925Z,96970.75
2023-04-25T06:36:01.846Z,96965.22
2023-04-25T06:38:30.444Z,96961.75
2023-04-25T06:40:58.775Z,96964.56
2023-04-25T06:43:29.710Z,96965.97
2023-04-25T06:46:32.613Z,96966.75
2023-04-25T06:49:00.824Z,96964.06
2023-04-25T06:51:30.671Z,96963.31
2023-04-25T06:53:58.955Z,96961.34
2023-04-25T06:56:32.047Z,96963.53
2023-04-25T06:59:07.038Z,96962.59
2023-04-25T07:01:37.181Z,96970.28
2023-04-25T07:04:08.479Z,96967.81
2023-04-25T07:06:43.492Z,96967.44
2023-04-25T07:09:12.227Z,96971.81
2023-04-25T07:11:40.296Z,96971.81
2023-04-25T07:14:08.320Z,96976.56
2023-04-25T07:16:35.904Z,96985.34
2023-04-25T07:19:03.859Z,96981.13
2023-04-25T07:21:32.202Z,96978.72
2023-04-25T07:24:02.059Z,96982.63
2023-04-25T07:26:34.793Z,96982.97
2023-04-25T07:29:20.662Z,96988.31
2023-04-25T07:31:48.774Z,96991.94
2023-04-25T07:34:16.703Z,96991.22
2023-04-25T07:36:46.034Z,96992.41
2023-04-25T07:39:13.732Z,96994.88
2023-04-25T07:41:41.640Z,96990.19
2023-04-25T07:44:13.746Z,96993.06
2023-04-25T07:46:41.563Z,97002.81
2023-04-25T07:49:11.276Z,97002.66
2023-04-25T07:51:39.918Z,97008.63
2023-04-25T07:54:15.570Z,97009.41
2023-04-25T07:56:52.685Z,97020.28
2023-04-25T07:59:23.179Z,97013.63
2023-04-25T08:01:51.379Z,97013.09
2023-04-25T08:04:20.832Z,97022.19
2023-04-25T08:06:59.003Z,97027.44
2023-04-25T08:09:34.800Z,97020.00
2023-04-25T08:12:04.995Z,97023.59
2023-04-25T08:14:37.008Z,97025.63
2023-04-25T08:17:06.488Z,97030.50
2023-04-25T08:19:36.724Z,97033.97
2023-04-25T08:22:04.360Z,97035.38
2023-04-25T08:24:43.293Z,97041.81
2023-04-25T08:27:10.879Z,97046.22
2023-04-25T08:29:38.593Z,97048.25
2023-04-25T08:32:06.339Z,97052.38
2023-04-25T08:34:37.720Z,97054.09
2023-04-25T08:37:06.306Z,97054.47
2023-04-25T08:40:00.037Z,97054.00
2023-04-25T08:42:28.623Z,97064.66
2023-04-25T08:44:57.188Z,97068.38
2023-04-25T08:47:30.638Z,97067.44
2023-04-25T08:50:00.549Z,97065.66
2023-04-25T08:52:36.234Z,97071.56
2023-04-25T08:55:05.661Z,97070.81
2023-04-25T08:57:35.401Z,97075.72
2023-04-25T09:00:04.709Z,97076.84
2023-04-25T09:02:35.262Z,97085.13
2023-04-25T09:05:05.249Z,97084.31
2023-04-25T09:07:32.951Z,97089.56
2023-04-25T09:10:02.797Z,97090.84
2023-04-25T09:12:33.090Z,97097.16
2023-04-25T09:15:13.126Z,97097.09
2023-04-25T09:18:12.610Z,97104.81
2023-04-25T09:21:00.816Z,97101.88
2023-04-25T09:23:30.323Z,97109.78
2023-04-25T09:25:57.826Z,97110.25
2023-04-25T09:28:30.105Z,97118.09
2023-04-25T09:30:59.687Z,97121.75
2023-04-25T09:33:39.456Z,97121.22
2023-04-25T09:36:11.948Z,97128.03
2023-04-25T09:39:16.198Z,97129.41
2023-04-25T09:41:54.364Z,97131.63
2023-04-25T09:44:25.727Z,97144.72
2023-04-25T09:46:55.179Z,97149.13
2023-04-25T09:49:28.830Z,97155.50
2023-04-25T09:52:02.648Z,97155.84
2023-04-25T09:54:37.039Z,97159.63
2023-04-25T09:57:24.043Z,97170.13
2023-04-25T09:59:56.891Z,97172.13
2023-04-25T10:02:28.211Z,97198.78
2023-04-25T10:05:04.361Z,97186.78
2023-04-25T10:07:39.726Z,97193.34
2023-04-25T10:10:15.063Z,97202.06
2023-04-25T10:12:45.052Z,97203.91
2023-04-25T10:15:15.305Z,97206.81
2023-04-25T10:17:43.829Z,97217.19
2023-04-25T10:20:12.309Z,97218.84
2023-04-25T10:22:45.132Z,97218.50
2023-04-25T10:25:13.711Z,97225.44
2023-04-25T10:27:41.908Z,97224.81
2023-04-25T10:30:16.028Z,97229.16
2023-04-25T10:32:46.600Z,97229.47
2023-04-25T10:35:29.422Z,97231.06
2023-04-25T10:38:10.889Z,97231.97
2023-04-25T10:40:38.444Z,97238.25
2023-04-25T10:43:38.813Z,97236.81
2023-04-25T10:46:27.261Z,97244.47
2023-04-25T10:49:00.744Z,97243.13
2023-04-25T10:51:51.485Z,97245.75
2023-04-25T10:54:24.065Z,97245.72
2023-04-25T10:56:52.244Z,97243.66
2023-04-25T10:59:20.584Z,97243.44
2023-04-25T11:01:52.405Z,97247.09
2023-04-25T11:04:37.211Z,97243.44
2023-04-25T11:07:25.081Z,97246.47
2023-04-25T11:09:53.035Z,97247.09
2023-04-25T11:12:20.717Z,97246.38
2023-04-25T11:14:48.282Z,97254.97
2023-04-25T11:17:16.023Z,97255.84
2023-04-25T11:19:43.510Z,97261.13
2023-04-25T11:22:13.236Z,97253.19
2023-04-25T11:24:40.763Z,97257.56
2023-04-25T11:27:08.312Z,97258.97
2023-04-25T11:29:36.276Z,97259.97
2023-04-25T11:32:03.978Z,97260.69
2023-04-25T11:34:34.353Z,97258.34
2023-04-25T11:37:03.591Z,97265.84
2023-04-25T11:39:31.375Z,97264.78
2023-04-25T11:42:01.343Z,97260.16
2023-04-25T11:44:30.746Z,97268.56
2023-04-25T11:46:58.489Z,97268.94
2023-04-25T11:49:33.189Z,97264.06
2023-04-25T11:52:00.798Z,97265.63
2023-04-25T11:54:28.362Z,97264.16
2023-04-25T11:56:56.016Z,97272.31
2023-04-25T11:59:32.777Z,97277.34
2023-04-25T12:02:02.593Z,97279.66
2023-04-25T12:04:33.326Z,97279.09
2023-04-25T12:07:02.549Z,97270.47
2023-04-25T12:09:34.755Z,97272.25
2023-04-25T12:12:03.868Z,97272.56
2023-04-25T12:14:36.912Z,97280.09
2023-04-25T12:17:08.733Z,97283.03
2023-04-25T12:19:42.113Z,97278.53
2023-04-25T12:22:24.743Z,97286.47
2023-04-25T12:24:54.256Z,97286.66
2023-04-25T12:27:21.780Z,97285.56
2023-04-25T12:29:57.187Z,97291.16
2023-04-25T12:32:25.316Z,97296.41
2023-04-25T12:34:52.950Z,97287.09
2023-04-25T12:37:20.571Z,97296.13
2023-04-25T12:39:48.042Z,97296.59
2023-04-25T12:42:15.701Z,97303.59
2023-04-25T12:44:43.183Z,97303.13
2023-04-25T12:47:11.118Z,97309.47
2023-04-25T12:49:38.818Z,97302.00
2023-04-25T12:52:06.393Z,97296.78
2023-04-25T12:54:33.978Z,97306.69
2023-04-25T12:57:03.758Z,97314.88
2023-04-25T12:59:31.441Z,97315.63
2023-04-25T13:01:58.972Z,97308.78
2023-04-25T13:04:26.654Z,97307.06
2023-04-25T13:06:54.209Z,97314.66
2023-04-25T13:09:22.010Z,97312.28
2023-04-25T13:11:49.523Z,97311.91
2023-04-25T13:14:17.203Z,97315.63
2023-04-25T13:16:44.899Z,97316.25
2023-04-25T13:19:12.474Z,97315.28
2023-04-25T13:21:40.218Z,97313.13
2023-04-25T13:24:07.974Z,97314.41
2023-04-25T13:26:35.767Z,97317.63
2023-04-25T13:29:04.568Z,97309.97
2023-04-25T13:31:32.760Z,97316.25
2023-04-25T13:34:00.422Z,97317.56
2023-04-25T13:36:28.773Z,97312.75
2023-04-25T13:38:56.248Z,97324.78
2023-04-25T13:41:24.097Z,97333.66
2023-04-25T13:43:52.200Z,97318.63
2023-04-25T13:46:40.893Z,97328.41
2023-04-25T13:49:12.673Z,97331.31
2023-04-25T13:51:41.610Z,97320.00
2023-04-25T13:54:09.170Z,97328.47
2023-04-25T13:56:36.784Z,97312.38
2023-04-25T13:59:04.437Z,97323.03
2023-04-25T14:01:35.067Z,97319.25
2023-04-25T14:04:05.024Z,97325.44
2023-04-25T14:06:33.867Z,97321.03
2023-04-25T14:09:05.445Z,97326.50
2023-04-25T14:11:33.072Z,97331.47
2023-04-25T14:14:00.674Z,97320.22
2023-04-25T14:16:29.131Z,97321.47
2023-04-25T14:18:57.120Z,97329.13
2023-04-25T14:21:24.819Z,97325.91
2023-04-25T14:23:52.682Z,97325.13
2023-04-25T14:26:20.430Z,97329.97
2023-04-25T14:28:47.913Z,97329.66
2023-04-25T14:31:15.618Z,97328.56
2023-04-25T14:33:44.180Z,97332.97
2023-04-25T14:36:12.007Z,97332.91
2023-04-25T14:38:39.536Z,97334.47
2023-04-25T14:41:07.166Z,97330.97
2023-04-25T14:43:34.629Z,97333.09
2023-04-25T14:46:03.037Z,97335.03
2023-04-25T14:48:30.917Z,97328.78
2023-04-25T14:50:58.634Z,97327.59
2023-04-25T14:53:26.405Z,97330.06
2023-04-25T14:55:54.560Z,97331.13
2023-04-25T14:58:22.308Z,97339.91
2023-04-25T15:00:50.193Z,97334.53
2023-04-25T15:03:19.117Z,97337.84
2023-04-25T15:05:49.443Z,97338.41
2023-04-25T15:08:17.017Z,97333.75
2023-04-25T15:10:46.246Z,97339.88
2023-04-25T15:13:13.989Z,97343.22
2023-04-25T15:15:41.679Z,97338.47
2023-04-25T15:18:09.225Z,97344.91
2023-04-25T15:20:36.792Z,97343.56
2023-04-25T15:23:05.750Z,97348.22
2023-04-25T15:25:33.353Z,97340.38
2023-04-25T15:28:00.916Z,97350.06
2023-04-25T15:30:28.528Z,97353.72
2023-04-25T15:32:56.306Z,97347.91
2023-04-25T15:35:23.855Z,97355.03
2023-04-25T15:37:52.195Z,97351.59
2023-04-25T15:40:19.892Z,97347.78
2023-04-25T15:42:53.972Z,97346.06
2023-04-25T15:45:25.909Z,97351.03
2023-04-25T15:47:57.234Z,97359.63
2023-04-25T15:50:25.130Z,97348.91
2023-04-25T15:52:52.657Z,97356.91
2023-04-25T15:55:26.584Z,97355.81
2023-04-25T15:57:54.089Z,97357.44
2023-04-25T16:00:22.779Z,97357.22
2023-04-25T16:02:50.794Z,97365.59
2023-04-25T16:05:19.025Z,97356.06
2023-04-25T16:07:47.862Z,97355.13
2023-04-25T16:10:21.382Z,97350.16
2023-04-25T16:12:50.067Z,97350.78
2023-04-25T16:15:18.253Z,97355.47
2023-04-25T16:17:46.117Z,97360.91
2023-04-25T16:20:13.987Z,97356.94
2023-04-25T16:22:43.245Z,97363.41
2023-04-25T16:25:14.425Z,97362.03
2023-04-25T16:27:42.135Z,97364.69
2023-04-25T16:30:11.534Z,97365.50
2023-04-25T16:32:41.687Z,97373.34
2023-04-25T16:35:10.301Z,97371.41
2023-04-25T16:37:37.886Z,97372.44
2023-04-25T16:40:09.750Z,97376.56
2023-04-25T16:42:37.394Z,97383.97
2023-04-25T16:45:05.505Z,97387.41
2023-04-25T16:47:33.148Z,97395.72
2023-04-25T16:50:01.524Z,97388.34
2023-04-25T16:52:29.003Z,97395.41
2023-04-25T16:54:56.646Z,97387.09
2023-04-25T16:57:24.148Z,97392.91
2023-04-25T16:59:51.929Z,97385.34
2023-04-25T17:02:19.582Z,97392.28
2023-04-25T17:04:47.536Z,97395.03
2023-04-25T17:07:15.899Z,97400.81
2023-04-25T17:09:43.529Z,97407.59
2023-04-25T17:12:11.047Z,97408.00
2023-04-25T17:14:38.988Z,97409.53
2023-04-25T17:17:06.940Z,97416.41
2023-04-25T17:19:35.287Z,97422.63
2023-04-25T17:22:02.813Z,97435.31
2023-04-25T17:24:30.345Z,97446.72
2023-04-25T17:26:57.942Z,97442.63
2023-04-25T17:29:26.728Z,97455.09
2023-04-25T17:31:54.374Z,97457.09
2023-04-25T17:34:22.020Z,97459.16
2023-04-25T17:36:50.011Z,97473.81
2023-04-25T17:39:17.759Z,97463.84
2023-04-25T17:41:45.692Z,97467.19
2023-04-25T17:44:14.188Z,97466.69
2023-04-25T17:46:41.754Z,97461.50
2023-04-25T17:49:09.431Z,97460.50
2023-04-25T17:51:37.379Z,97462.50
2023-04-25T17:54:04.945Z,97465.16
2023-04-25T17:56:37.395Z,97469.63
2023-04-25T17:59:04.992Z,97467.13
2023-04-25T18:01:32.802Z,97467.81
2023-04-25T18:04:00.664Z,97462.94
2023-04-25T18:06:28.314Z,97464.09
2023-04-25T18:08:57.006Z,97470.22
2023-04-25T18:11:25.024Z,97476.41
2023-04-25T18:13:53.052Z,97480.22
2023-04-25T18:16:21.057Z,97478.41
2023-04-25T18:18:55.151Z,97484.41
2023-04-25T18:21:22.847Z,97472.22
2023-04-25T18:23:50.425Z,97479.56
2023-04-25T18:26:18.174Z,97479.38
2023-04-25T18:28:45.781Z,97476.72
2023-04-25T18:31:13.926Z,97474.53
2023-04-25T18:33:41.586Z,97475.19
2023-04-25T18:36:09.108Z,97475.03
2023-04-25T18:38:36.700Z,97476.50
2023-04-25T18:41:21.095Z,97484.19
2023-04-25T18:43:52.794Z,97499.69
2023-04-25T18:46:22.634Z,97497.75
2023-04-25T18:48:53.797Z,97502.75
2023-04-25T18:51:23.325Z,97508.22
2023-04-25T18:53:51.991Z,97519.56
2023-04-25T18:56:22.547Z,97523.72
2023-04-25T18:58:53.787Z,97523.53
2023-04-25T19:01:26.256Z,97529.22
2023-04-25T19:03:57.398Z,97530.03
2023-04-25T19:06:29.356Z,97530.88
2023-04-25T19:08:57.518Z,97536.38
2023-04-25T19:11:25.306Z,97542.19
2023-04-25T19:13:55.451Z,97537.88
2023-04-25T19:16:23.763Z,97545.72
2023-04-25T19:18:54.157Z,97539.22
2023-04-25T19:21:21.873Z,97536.72
2023-04-25T19:23:49.460Z,97543.69
2023-04-25T19:26:18.510Z,97538.22
2023-04-25T19:28:46.121Z,97535.38
2023-04-25T19:31:13.828Z,97543.88
2023-04-25T19:33:42.182Z,97549.03
2023-04-25T19:36:09.732Z,97553.38
2023-04-25T19:38:37.211Z,97555.38
2023-04-25T19:41:04.717Z,97560.22
2023-04-25T19:43:32.318Z,97553.88
2023-04-25T19:45:59.968Z,97561.88
2023-04-25T19:48:27.747Z,97556.72
2023-04-25T19:50:55.436Z,97551.22
2023-04-25T19:53:22.963Z,97552.22
2023-04-25T19:55:50.916Z,97554.22
2023-04-25T19:58:18.457Z,97554.22
2023-04-25T20:00:46.021Z,97547.72
2023-04-25T20:03:13.673Z,97549.56
2023-04-25T20:05:41.199Z,97550.72
2023-04-25T20:08:09.008Z,97566.38
2023-04-25T20:10:37.242Z,97565.38
2023-04-25T20:13:05.429Z,97566.38
2023-04-25T20:15:32.906Z,97572.88
2023-04-25T20:18:00.599Z,97571.38
2023-04-25T20:20:28.415Z,97573.19
2023-04-25T20:22:56.999Z,97571.03
2023-04-25T20:25:24.940Z,97574.91
2023-04-25T20:27:52.498Z,97574.38
2023-04-25T20:30:20.086Z,97583.53
2023-04-25T20:32:47.691Z,97588.03
2023-04-25T20:35:15.621Z,97579.69
2023-04-25T20:37:43.362Z,97575.53
2023-04-25T20:40:11.706Z,97575.69
2023-04-25T20:42:39.357Z,97583.03
2023-04-25T20:45:12.586Z,97576.56
2023-04-25T20:47:41.302Z,97585.22
2023-04-25T20:50:09.269Z,97582.69
2023-04-25T20:52:38.534Z,97586.84
2023-04-25T20:55:07.408Z,97571.84
2023-04-25T20:57:34.913Z,97575.53
2023-04-25T21:00:16.885Z,97579.69
2023-04-25T21:02:46.566Z,97577.53
2023-04-25T21:05:14.366Z,97584.19
2023-04-25T21:07:42.215Z,97581.38
2023-04-25T21:10:10.313Z,97588.84
2023-04-25T21:12:37.965Z,97588.03
2023-04-25T21:15:06.151Z,97582.69
2023-04-25T21:17:33.773Z,97589.53
2023-04-25T21:20:01.275Z,97590.69
2023-04-25T21:22:28.762Z,97587.00
2023-04-25T21:24:57.128Z,97594.03
2023-04-25T21:27:24.728Z,97601.31
2023-04-25T21:29:52.213Z,97593.81
2023-04-25T21:32:21.774Z,97597.34
2023-04-25T21:34:49.285Z,97595.66
2023-04-25T21:37:16.785Z,97597.00
2023-04-25T21:39:44.523Z,97598.00
2023-04-25T21:42:13.207Z,97604.31
2023-04-25T21:44:40.688Z,97605.50
2023-04-25T21:47:08.308Z,97610.16
2023-04-25T21:49:36.147Z,97610.78
2023-04-25T21:52:03.794Z,97607.81
2023-04-25T21:54:31.708Z,97607.13
2023-04-25T21:56:59.397Z,97608.13
2023-04-25T21:59:27.226Z,97605.47
2023-04-25T22:01:55.135Z,97608.13
2023-04-25T22:04:22.946Z,97613.28
2023-04-25T22:06:50.633Z,97613.13
2023-04-25T22:09:18.711Z,97606.31
2023-04-25T22:11:46.999Z,97616.63
2023-04-25T22:14:14.813Z,97610.97
2023-04-25T22:16:42.387Z,97612.16
2023-04-25T22:19:09.983Z,97618.97
2023-04-25T22:21:37.616Z,97610.47
2023-04-25T22:24:06.200Z,97617.94
2023-04-25T22:26:34.516Z,97615.13
2023-04-25T22:29:02.573Z,97626.28
2023-04-25T22:31:30.335Z,97623.28
2023-04-25T22:33:57.967Z,97634.44
2023-04-25T22:36:25.524Z,97624.78
2023-04-25T22:38:53.969Z,97632.59
2023-04-25T22:41:23.566Z,97626.94
2023-04-25T22:43:51.120Z,97631.94
2023-04-25T22:46:20.863Z,97642.25
2023-04-25T22:48:48.780Z,97640.06
2023-04-25T22:51:16.845Z,97638.56
2023-04-25T22:53:45.253Z,97641.91
2023-04-25T22:56:13.010Z,97633.75
2023-04-25T22:58:40.831Z,97635.56
2023-04-25T23:01:08.756Z,97639.38
2023-04-25T23:03:36.370Z,97643.22
2023-04-25T23:06:05.298Z,97645.34
2023-04-25T23:08:33.176Z,97645.66
2023-04-25T23:11:29.540Z,97639.38
2023-04-25T23:13:58.617Z,97639.34
2023-04-25T23:16:26.362Z,97640.97
2023-04-25T23:18:54.184Z,97639.34
2023-04-25T23:21:21.905Z,97635.50
2023-04-25T23:23:49.385Z,97642.97
2023-04-25T23:26:17.130Z,97638.47
2023-04-25T23:28:46.619Z,97646.00
2023-04-25T23:31:14.175Z,97644.00
2023-04-25T23:33:41.711Z,97641.25
2023-04-25T23:36:19.825Z,97647.75
2023-04-25T23:38:48.277Z,97646.28
2023-04-25T23:41:15.996Z,97650.81
2023-04-25T23:43:43.469Z,97654.66
2023-04-25T23:46:12.442Z,97649.78
2023-04-25T23:48:40.097Z,97656.94
2023-04-25T23:51:07.631Z,97651.97
2023-04-25T23:53:35.114Z,97656.81
2023-04-25T23:56:02.933Z,97654.50
2023-04-25T23:58:30.597Z,97657.00
